Time;durP1;ratioP1;P1;durP2;ratioP2;P2;SDS_P1;SDS_P2;PMS_P1;PMS_P2;Temp;Humidity;BMP_temperature;BMP_pressure;BME280_temperature;BME280_humidity;BME280_pressure;Samples;Min_cycle;Max_cycle;Signal;HPM_P1;HPM_P2
2021/03/07 00:01:52;;;;;;;5.03;3.33;;;;;;;0.49;74.80;103028.09;5093655;28;20097;-40
2021/03/07 00:04:17;;;;;;;6.53;3.93;;;;;;;0.48;74.73;103028.19;5093624;28;20077;-40
2021/03/07 00:06:42;;;;;;;7.57;3.77;;;;;;;0.38;74.07;103027.16;5096908;28;20081;-40
2021/03/07 00:09:08;;;;;;;5.67;3.77;;;;;;;0.30;74.33;103024.22;5097947;28;20028;-40
2021/03/07 00:11:33;;;;;;;6.17;4.10;;;;;;;0.22;74.53;103028.25;5096866;28;20438;-40
2021/03/07 00:13:58;;;;;;;5.13;3.80;;;;;;;0.21;74.33;103023.06;5096714;28;20353;-40
2021/03/07 00:16:24;;;;;;;11.13;4.77;;;;;;;0.14;74.59;103017.28;5096993;28;20024;-40
2021/03/07 00:18:49;;;;;;;6.00;3.50;;;;;;;0.09;74.35;103015.94;5097284;28;20020;-40
2021/03/07 00:21:15;;;;;;;5.37;3.83;;;;;;;0.10;75.03;103017.63;5097239;28;20031;-40
2021/03/07 00:23:40;;;;;;;6.82;4.22;;;;;;;-0.04;74.22;103027.44;5096900;28;20024;-40
2021/03/07 00:26:06;;;;;;;6.20;4.30;;;;;;;0.00;74.67;103025.44;5113200;28;20038;-40
2021/03/07 00:28:31;;;;;;;7.30;4.00;;;;;;;-0.08;75.40;103020.66;5096734;28;20460;-40
2021/03/07 00:30:56;;;;;;;8.47;3.77;;;;;;;-0.06;75.20;103023.19;5096603;28;20066;-40
2021/03/07 00:33:22;;;;;;;8.80;4.30;;;;;;;-0.15;74.79;103023.81;5112534;28;20071;-40
2021/03/07 00:35:47;;;;;;;5.37;3.97;;;;;;;-0.11;74.96;103022.66;5097331;28;20028;-40
2021/03/07 00:38:12;;;;;;;8.07;4.70;;;;;;;-0.13;74.50;103022.78;5096900;28;20020;-40
2021/03/07 00:40:38;;;;;;;7.97;3.97;;;;;;;-0.19;74.67;103023.22;5096607;28;20067;-40
2021/03/07 00:43:03;;;;;;;7.43;4.23;;;;;;;-0.19;75.38;103022.38;5096322;28;20039;-40
2021/03/07 00:45:28;;;;;;;6.27;4.47;;;;;;;-0.19;74.67;103023.22;5096886;28;20063;-40
2021/03/07 00:47:54;;;;;;;6.90;4.20;;;;;;;-0.33;75.23;103016.19;5096371;28;20020;-40
2021/03/07 00:50:25;;;;;;;8.10;4.40;;;;;;;-0.34;75.32;103019.81;5096139;28;20020;-40
2021/03/07 00:52:50;;;;;;;5.95;3.75;;;;;;;-0.36;76.06;103026.19;5096643;28;20187;-40
2021/03/07 00:55:16;;;;;;;5.93;4.40;;;;;;;-0.36;75.59;103024.38;5096115;28;20106;-40
2021/03/07 00:57:41;;;;;;;7.67;5.83;;;;;;;-0.44;75.71;103018.75;5096312;28;20031;-40
2021/03/07 01:00:12;;;;;;;7.23;5.10;;;;;;;-0.41;77.29;103026.50;5097024;28;20028;-40
2021/03/07 01:02:38;;;;;;;11.90;4.78;;;;;;;-0.53;76.12;103027.34;5097293;28;20051;-40
2021/03/07 01:05:05;;;;;;;8.38;4.53;;;;;;;-0.46;76.63;103025.13;5095920;28;20046;-40
2021/03/07 01:07:30;;;;;;;9.25;4.63;;;;;;;-0.48;76.87;103021.72;5095964;28;20107;-40
2021/03/07 01:09:55;;;;;;;7.50;4.53;;;;;;;-0.56;75.08;103019.59;5095719;28;20107;-40
2021/03/07 01:12:21;;;;;;;6.60;4.20;;;;;;;-0.58;76.22;103013.53;5095908;28;20108;-40
2021/03/07 01:14:46;;;;;;;6.23;4.17;;;;;;;-0.56;76.85;103014.28;5096220;28;20488;-40
2021/03/07 01:17:11;;;;;;;6.97;4.97;;;;;;;-0.61;76.19;103005.75;5096315;28;20474;-40
2021/03/07 01:19:37;;;;;;;7.63;4.80;;;;;;;-0.64;76.33;103000.66;5095972;28;20032;-40
2021/03/07 01:22:03;;;;;;;8.48;5.10;;;;;;;-0.75;75.67;103009.34;5095846;28;20024;-40
2021/03/07 01:24:29;;;;;;;9.02;5.35;;;;;;;-0.79;76.92;103010.50;5111477;28;20407;-40
2021/03/07 01:26:54;;;;;;;7.40;4.33;;;;;;;-0.73;76.67;103001.28;5095426;28;20032;-40
2021/03/07 01:29:19;;;;;;;7.37;4.00;;;;;;;-0.70;77.54;103001.91;5095883;28;20103;-40
2021/03/07 01:31:45;;;;;;;7.57;4.57;;;;;;;-0.72;76.75;102995.88;5095231;28;20472;-40
2021/03/07 01:34:10;;;;;;;7.50;4.60;;;;;;;-0.76;76.44;102994.38;5095760;28;20024;-40
2021/03/07 01:36:35;;;;;;;8.83;5.27;;;;;;;-0.85;76.10;102981.72;5095765;28;20055;-40
2021/03/07 01:39:01;;;;;;;7.47;4.93;;;;;;;-0.87;75.86;102980.97;5095814;28;20061;-40
2021/03/07 01:41:26;;;;;;;12.07;4.73;;;;;;;-0.91;75.83;102983.00;5095412;28;20032;-40
2021/03/07 01:43:52;;;;;;;7.00;4.87;;;;;;;-0.95;76.87;102973.50;5095870;28;20032;-40
2021/03/07 01:46:17;;;;;;;7.37;5.00;;;;;;;-0.93;76.48;102968.94;5094991;28;20027;-40
2021/03/07 01:48:43;;;;;;;6.60;4.50;;;;;;;-0.93;76.06;102978.72;5095157;28;20109;-40
2021/03/07 01:51:08;;;;;;;6.60;4.80;;;;;;;-0.97;76.68;102962.16;5095663;28;20032;-40
2021/03/07 01:53:34;;;;;;;6.90;5.23;;;;;;;-0.98;76.57;102965.75;5094890;28;20505;-40
2021/03/07 01:56:04;;;;;;;7.43;5.25;;;;;;;-1.00;77.33;102967.66;5095380;28;20479;-40
2021/03/07 01:58:32;;;;;;;7.22;5.10;;;;;;;-1.12;77.03;102966.69;5094989;28;20119;-40
2021/03/07 02:00:59;;;;;;;7.65;4.93;;;;;;;-1.09;76.96;102957.66;5095296;28;20028;-40
2021/03/07 02:03:24;;;;;;;;;;;;;;;-1.00;75.71;102958.84;5095639;28;20024;-40
2021/03/07 02:05:50;;;;;;;7.25;4.63;;;;;;;-1.15;76.34;102950.13;5094123;28;19914;-40
2021/03/07 02:08:17;;;;;;;6.15;4.20;;;;;;;-1.14;76.56;102947.34;5094987;28;20035;-40
2021/03/07 02:10:48;;;;;;;8.95;4.60;;;;;;;-1.14;77.59;102944.69;5095545;28;20364;-40
2021/03/07 02:13:18;;;;;;;9.77;4.97;;;;;;;-1.19;75.16;102943.31;5095064;28;20024;-40
2021/03/07 02:15:47;;;;;;;8.90;5.28;;;;;;;-1.24;76.91;102938.31;5094725;28;20024;-40
2021/03/07 02:18:14;;;;;;;9.27;5.85;;;;;;;-1.33;77.15;102934.44;5094219;28;20122;-40
2021/03/07 02:20:46;;;;;;;11.32;5.65;;;;;;;-1.32;77.55;102928.22;5094598;28;20043;-40
2021/03/07 02:23:16;;;;;;;7.82;5.40;;;;;;;-1.36;77.25;102928.53;5094256;28;20107;-40
2021/03/07 02:25:41;;;;;;;9.43;5.20;;;;;;;-1.38;77.74;102923.28;5094113;28;20468;-40
2021/03/07 02:28:08;;;;;;;9.50;5.75;;;;;;;-1.39;76.69;102926.91;5094063;28;20039;-40
2021/03/07 02:30:35;;;;;;;8.77;5.28;;;;;;;-1.52;77.45;102927.81;5094236;28;20071;-40
2021/03/07 02:33:15;;;;;;;9.35;5.13;;;;;;;-1.49;77.60;102917.00;5094274;28;20107;-40
2021/03/07 02:35:48;;;;;;;7.93;5.32;;;;;;;-1.60;77.31;102917.72;5094412;28;20028;-40
2021/03/07 02:38:19;;;;;;;8.32;5.72;;;;;;;-1.63;77.54;102920.56;5094287;28;20032;-40
2021/03/07 02:40:48;;;;;;;10.18;5.68;;;;;;;-1.59;79.00;102916.75;5094758;28;20453;-41
2021/03/07 02:43:15;;;;;;;8.70;5.60;;;;;;;-1.60;77.42;102909.75;5093832;28;20551;-40
2021/03/07 02:45:42;;;;;;;6.38;5.10;;;;;;;-1.66;75.50;102916.31;5093897;28;20093;-40
2021/03/07 02:48:12;;;;;;;8.63;5.45;;;;;;;-1.65;78.17;102904.75;5093615;28;20032;-40
2021/03/07 02:50:39;;;;;;;8.90;6.00;;;;;;;-1.65;77.29;102910.06;5094234;28;20388;-40
2021/03/07 02:53:09;;;;;;;12.93;6.05;;;;;;;-1.63;77.48;102900.19;5093661;28;20060;-40
2021/03/07 02:55:37;;;;;;;9.90;6.03;;;;;;;-1.71;75.89;102906.94;5093676;28;20081;-40
2021/03/07 02:58:12;;;;;;;8.52;5.95;;;;;;;-1.68;77.40;102912.91;5094113;28;20024;-40
2021/03/07 03:00:49;;;;;;;8.93;5.47;;;;;;;-1.65;77.46;102911.88;5093025;28;20059;-40
2021/03/07 03:03:15;;;;;;;8.82;5.95;;;;;;;-1.72;77.29;102900.78;5094176;28;20040;-40
2021/03/07 03:05:41;;;;;;;18.67;7.55;;;;;;;-1.73;78.00;102898.25;5094073;28;20028;-40
2021/03/07 03:08:07;;;;;;;11.30;6.40;;;;;;;-1.74;77.91;102902.69;5093698;28;20035;-40
2021/03/07 03:10:35;;;;;;;13.32;7.05;;;;;;;-1.80;78.01;102902.25;5093736;28;20036;-40
2021/03/07 03:13:03;;;;;;;11.30;6.40;;;;;;;-1.78;78.69;102890.59;5093840;28;20028;-40
2021/03/07 03:15:29;;;;;;;9.73;6.20;;;;;;;-1.76;79.09;102887.81;5094480;28;20099;-40
2021/03/07 03:17:56;;;;;;;12.07;6.10;;;;;;;-1.88;77.42;102885.03;5093633;28;20032;-40
2021/03/07 03:20:22;;;;;;;9.18;5.45;;;;;;;-1.97;75.50;102884.78;5094233;28;20031;-40
2021/03/07 03:22:49;;;;;;;9.65;6.07;;;;;;;-2.07;78.58;102874.75;5093825;28;20069;-40
2021/03/07 03:25:15;;;;;;;9.30;6.32;;;;;;;-2.04;78.55;102875.53;5093910;28;20024;-40
2021/03/07 03:27:41;;;;;;;10.40;5.97;;;;;;;-2.02;78.50;102870.97;5093472;28;20024;-43
2021/03/07 03:30:18;;;;;;;9.50;6.20;;;;;;;-2.05;77.88;102872.00;5093859;28;20515;-40
2021/03/07 03:32:44;;;;;;;7.57;5.43;;;;;;;-2.13;77.12;102863.72;5094039;28;20372;-40
2021/03/07 03:35:12;;;;;;;9.13;5.32;;;;;;;-2.04;78.41;102873.72;5093596;28;20032;-40
2021/03/07 03:37:38;;;;;;;10.15;5.88;;;;;;;-2.13;77.98;102875.16;5093475;28;20074;-40
2021/03/07 03:40:08;;;;;;;9.68;5.80;;;;;;;-2.05;78.69;102872.00;5095533;28;20115;-40
2021/03/07 03:42:39;;;;;;;10.15;6.32;;;;;;;-2.02;79.56;102863.88;5098150;28;20050;-40
2021/03/07 03:45:06;;;;;;;9.13;6.40;;;;;;;-2.16;77.22;102872.69;5097994;28;20034;-40
2021/03/07 03:47:33;;;;;;;11.32;6.07;;;;;;;-2.19;78.17;102866.78;5097900;28;20034;-40
2021/03/07 03:49:59;;;;;;;7.53;5.80;;;;;;;-2.17;78.64;102856.91;5098348;28;20056;-40
2021/03/07 03:52:26;;;;;;;12.45;5.78;;;;;;;-2.20;79.01;102865.03;5098365;28;20043;-40
2021/03/07 03:54:58;;;;;;;11.07;6.00;;;;;;;-2.15;79.09;102866.47;5097769;28;20032;-40
2021/03/07 03:57:32;;;;;;;11.60;6.95;;;;;;;-2.17;79.45;102870.16;5096447;28;20494;-40
2021/03/07 04:00:00;;;;;;;11.15;6.30;;;;;;;-2.17;78.60;102872.81;5097615;28;20376;-40
2021/03/07 04:02:27;;;;;;;7.25;5.30;;;;;;;-2.23;77.71;102860.81;5097266;28;20044;-40
2021/03/07 04:04:55;;;;;;;9.10;5.90;;;;;;;-2.18;79.74;102866.66;5097609;28;20035;-40
2021/03/07 04:07:22;;;;;;;9.88;5.55;;;;;;;-2.26;76.89;102874.25;5097990;28;20341;-40
2021/03/07 04:09:48;;;;;;;10.38;6.40;;;;;;;-2.29;79.18;102862.97;5097178;28;20035;-40
2021/03/07 04:12:14;;;;;;;10.07;5.60;;;;;;;-2.25;79.24;102859.19;5097168;28;20028;-40
2021/03/07 04:14:40;;;;;;;7.07;5.18;;;;;;;-2.35;76.29;102859.78;5097722;28;20108;-40
2021/03/07 04:17:06;;;;;;;10.60;5.97;;;;;;;-2.39;77.66;102865.34;5097011;28;20035;-40
2021/03/07 04:19:33;;;;;;;9.70;6.53;;;;;;;-2.31;79.11;102855.13;5097871;28;20028;-40
2021/03/07 04:22:00;;;;;;;7.28;5.25;;;;;;;-2.39;77.99;102858.28;5096706;28;20029;-40
2021/03/07 04:24:26;;;;;;;12.35;6.60;;;;;;;-2.35;77.89;102858.91;5097099;28;20039;-40
2021/03/07 04:26:52;;;;;;;12.43;6.23;;;;;;;-2.38;78.96;102854.69;5096897;28;20468;-39
2021/03/07 04:29:18;;;;;;;11.15;7.07;;;;;;;-2.41;80.12;102854.88;5096970;28;20332;-39
2021/03/07 04:31:44;;;;;;;11.05;6.45;;;;;;;-2.49;78.35;102857.16;5097216;28;20102;-39
2021/03/07 04:34:10;;;;;;;10.82;6.93;;;;;;;-2.51;80.09;102855.56;5096607;28;20028;-39
2021/03/07 04:36:36;;;;;;;13.43;6.90;;;;;;;-2.46;79.92;102848.16;5097360;28;20020;-39
2021/03/07 04:39:03;;;;;;;9.43;6.07;;;;;;;-2.54;77.95;102845.97;5097150;28;20028;-39
2021/03/07 04:41:28;;;;;;;8.77;6.07;;;;;;;-2.51;79.81;102845.81;5096974;28;20028;-39
2021/03/07 04:43:56;;;;;;;10.23;6.03;;;;;;;-2.56;78.20;102844.41;5096989;28;20039;-39
2021/03/07 04:46:23;;;;;;;9.50;5.75;;;;;;;-2.63;76.14;102858.03;5096645;28;20032;-39
2021/03/07 04:48:50;;;;;;;9.05;5.70;;;;;;;-2.65;77.68;102840.53;5096481;28;20077;-39
2021/03/07 04:51:16;;;;;;;7.72;5.53;;;;;;;-2.65;76.37;102848.47;5096789;28;20415;-39
2021/03/07 04:53:41;;;;;;;9.82;6.25;;;;;;;-2.66;78.09;102849.41;5096484;28;20032;-39
2021/03/07 04:56:06;;;;;;;11.83;6.47;;;;;;;-2.56;80.22;102839.09;5096886;28;20158;-39
2021/03/07 04:58:34;;;;;;;8.13;5.53;;;;;;;-2.55;78.75;102840.78;5095929;28;20484;-39
2021/03/07 05:00:59;;;;;;;9.05;5.70;;;;;;;-2.48;80.25;102840.31;5096186;28;20027;-39
2021/03/07 05:03:24;;;;;;;7.57;5.20;;;;;;;-2.40;80.84;102834.53;5096058;28;20468;-39
2021/03/07 05:05:50;;;;;;;8.43;5.90;;;;;;;-2.42;79.78;102836.44;5095875;28;20031;-39
2021/03/07 05:08:15;;;;;;;11.10;5.33;;;;;;;-2.58;76.50;102828.59;5096462;28;20471;-39
2021/03/07 05:10:41;;;;;;;12.23;7.07;;;;;;;-2.54;78.84;102834.53;5096032;28;20376;-39
2021/03/07 05:13:06;;;;;;;9.52;6.22;;;;;;;-2.54;79.62;102826.59;5095284;28;20482;-39
2021/03/07 05:15:32;;;;;;;7.87;5.43;;;;;;;-2.61;77.29;102831.44;5096183;28;20111;-40
2021/03/07 05:17:57;;;;;;;8.63;5.47;;;;;;;-2.60;78.89;102822.53;5095881;28;20059;-39
2021/03/07 05:20:23;;;;;;;11.63;6.00;;;;;;;-2.59;79.38;102834.84;5096379;28;20082;-39
2021/03/07 05:22:48;;;;;;;8.27;5.60;;;;;;;-2.61;79.44;102832.28;5096064;28;20421;-39
2021/03/07 05:25:14;;;;;;;8.97;6.07;;;;;;;-2.56;80.07;102834.66;5095725;28;20097;-40
2021/03/07 05:27:40;;;;;;;11.17;6.53;;;;;;;-2.61;80.00;102829.63;5095680;28;20024;-39
2021/03/07 05:30:06;;;;;;;9.57;6.47;;;;;;;-2.61;79.92;102834.09;5095595;28;20016;-40
2021/03/07 05:32:31;;;;;;;15.32;7.10;;;;;;;-2.60;80.79;102828.69;5095533;28;20036;-39
2021/03/07 05:34:56;;;;;;;13.27;6.60;;;;;;;-2.58;80.93;102827.75;5095820;28;20388;-40
2021/03/07 05:37:21;;;;;;;10.13;7.30;;;;;;;-2.63;80.26;102826.25;5096084;28;20028;-40
2021/03/07 05:39:47;;;;;;;13.10;6.83;;;;;;;-2.60;80.46;102822.53;5111623;28;20414;-40
2021/03/07 05:42:12;;;;;;;9.23;6.37;;;;;;;-2.57;80.99;102818.88;5095555;28;20031;-39
2021/03/07 05:44:39;;;;;;;8.87;6.07;;;;;;;-2.61;79.59;102820.84;5095622;28;20039;-39
2021/03/07 05:47:05;;;;;;;13.02;7.05;;;;;;;-2.66;79.16;102818.47;5095426;28;20028;-39
2021/03/07 05:49:30;;;;;;;9.10;6.93;;;;;;;-2.58;80.41;102812.72;5095258;28;20464;-39
2021/03/07 05:51:57;;;;;;;12.90;8.25;;;;;;;-2.66;80.92;102817.63;5095213;28;20263;-39
2021/03/07 05:54:23;;;;;;;9.10;6.85;;;;;;;-2.73;78.95;102806.59;5095959;28;20063;-39
2021/03/07 05:56:49;;;;;;;9.20;7.05;;;;;;;-2.73;79.93;102809.25;5095169;28;20112;-39
2021/03/07 05:59:15;;;;;;;12.43;7.47;;;;;;;-2.68;81.70;102808.94;5095196;28;20028;-39
2021/03/07 06:01:40;;;;;;;12.68;7.63;;;;;;;-2.71;80.97;102803.84;5094964;28;20056;-39
2021/03/07 06:04:06;;;;;;;8.87;6.33;;;;;;;-2.66;80.50;102802.59;5094609;28;20503;-39
2021/03/07 06:06:32;;;;;;;10.17;7.30;;;;;;;-2.66;80.99;102805.25;5095327;28;20031;-39
2021/03/07 06:09:29;;;;;;;11.07;7.80;;;;;;;-2.55;80.74;102814.31;5095503;28;20031;-39
2021/03/07 06:11:57;;;;;;;13.57;7.28;;;;;;;-2.63;79.90;102809.50;5095704;28;20051;-39
2021/03/07 06:14:27;;;;;;;13.82;7.38;;;;;;;-2.64;81.84;102818.38;5095663;28;20039;-40
2021/03/07 06:17:11;;;;;;;13.98;8.05;;;;;;;-2.56;82.09;102810.81;5094812;28;20026;-39
2021/03/07 06:19:57;;;;;;;12.13;7.68;;;;;;;-2.52;81.82;102812.31;5094515;28;20188;-39
2021/03/07 06:22:23;;;;;;;10.60;7.90;;;;;;;-2.47;81.62;102817.31;5094330;28;20028;-39
2021/03/07 06:24:49;;;;;;;8.93;5.93;;;;;;;-2.54;80.20;102808.91;5094692;28;20035;-40
2021/03/07 06:27:19;;;;;;;10.63;7.20;;;;;;;-2.56;81.14;102808.16;5094910;28;20308;-44
2021/03/07 06:30:03;;;;;;;9.75;6.25;;;;;;;-2.47;82.48;102807.56;5094792;28;20051;-39
2021/03/07 06:32:31;;;;;;;7.55;6.20;;;;;;;-2.54;81.04;102806.25;5094425;28;20032;-39
2021/03/07 06:34:58;;;;;;;9.55;6.93;;;;;;;-2.42;82.49;102810.78;5095008;28;20396;-39
2021/03/07 06:37:24;;;;;;;8.07;6.35;;;;;;;-2.42;82.04;102810.78;5094064;28;20584;-39
2021/03/07 06:39:49;;;;;;;9.20;6.80;;;;;;;-2.36;81.38;102810.38;5094613;28;20060;-39
2021/03/07 06:42:16;;;;;;;8.68;6.35;;;;;;;-2.28;82.22;102804.59;5094818;28;20115;-39
2021/03/07 06:45:01;;;;;;;9.57;5.75;;;;;;;-2.29;80.69;102809.97;5094568;28;20105;-39
2021/03/07 06:47:29;;;;;;;10.00;7.28;;;;;;;-2.25;82.59;102800.88;5094186;28;20024;-39
2021/03/07 06:50:14;;;;;;;9.80;6.60;;;;;;;-2.23;80.52;102809.59;5094405;28;20024;-39
2021/03/07 06:52:50;;;;;;;7.95;6.20;;;;;;;-2.19;80.56;102803.16;5094104;28;20077;-39
2021/03/07 06:55:15;;;;;;;11.68;7.13;;;;;;;-2.17;79.71;102798.59;5094566;28;20411;-40
2021/03/07 06:57:41;;;;;;;9.35;6.03;;;;;;;-2.07;81.63;102797.03;5094037;28;20028;-39
2021/03/07 07:00:08;;;;;;;11.00;6.70;;;;;;;-1.96;83.43;102805.13;5093992;28;20083;-39
2021/03/07 07:02:33;;;;;;;9.40;6.70;;;;;;;-1.93;82.42;102801.44;5094401;28;20044;-39
2021/03/07 07:04:59;;;;;;;7.73;6.30;;;;;;;-1.91;80.60;102796.88;5094035;28;20498;-39
2021/03/07 07:07:25;;;;;;;7.30;6.40;;;;;;;-1.78;81.69;102804.88;5093922;28;20032;-39
2021/03/07 07:10:03;;;;;;;11.18;6.72;;;;;;;-1.76;80.33;102805.59;5093766;28;20020;-39
2021/03/07 07:12:29;;;;;;;9.10;6.80;;;;;;;-1.77;80.60;102803.91;5093610;28;20032;-39
2021/03/07 07:15:06;;;;;;;10.88;7.28;;;;;;;-1.69;81.78;102804.25;5094313;28;20028;-39
2021/03/07 07:17:31;;;;;;;10.07;6.75;;;;;;;-1.60;82.89;102803.63;5093709;28;20388;-40
2021/03/07 07:19:57;;;;;;;10.73;8.10;;;;;;;-1.47;82.51;102804.47;5094625;28;20032;-39
2021/03/07 07:22:22;;;;;;;9.27;6.70;;;;;;;-1.45;81.90;102799.09;5094041;28;20060;-39
2021/03/07 07:24:49;;;;;;;14.23;7.93;;;;;;;-1.37;81.22;102800.25;5094200;28;20077;-39
2021/03/07 07:27:14;;;;;;;13.05;8.18;;;;;;;-1.26;81.49;102796.88;5094027;28;20020;-39
2021/03/07 07:29:40;;;;;;;12.33;8.57;;;;;;;-1.30;80.17;102801.53;5093533;28;20034;-39
2021/03/07 07:32:07;;;;;;;13.73;9.73;;;;;;;-1.25;80.24;102797.72;5093554;28;20384;-39
2021/03/07 07:34:37;;;;;;;12.07;9.15;;;;;;;-1.13;81.98;102799.50;5093259;28;20045;-39
2021/03/07 07:37:05;;;;;;;12.27;9.65;;;;;;;-1.00;82.41;102803.00;5093774;28;20085;-39
2021/03/07 07:39:37;;;;;;;13.77;10.27;;;;;;;-0.86;82.87;102794.94;5093827;28;20028;-39
2021/03/07 07:42:21;;;;;;;13.20;9.30;;;;;;;-0.75;80.96;102796.81;5093225;28;20051;-39
2021/03/07 07:44:47;;;;;;;9.90;8.52;;;;;;;-0.69;81.91;102796.38;5093239;28;20032;-40
2021/03/07 07:47:13;;;;;;;14.02;8.65;;;;;;;-0.61;83.44;102793.16;5093453;28;20039;-40
2021/03/07 07:49:43;;;;;;;11.57;8.88;;;;;;;-0.49;83.02;102800.25;5093363;28;20036;-40
2021/03/07 07:52:23;;;;;;;11.02;8.02;;;;;;;-0.37;83.61;102799.38;5093374;28;20486;-40
2021/03/07 07:54:49;;;;;;;13.13;7.82;;;;;;;-0.30;83.12;102797.94;5093441;28;20031;-40
2021/03/07 07:57:40;;;;;;;13.07;8.30;;;;;;;-0.14;83.53;102791.53;5093429;28;20032;-40
2021/03/07 08:00:42;;;;;;;11.38;8.10;;;;;;;-0.04;83.43;102798.72;5093425;28;20034;-40
2021/03/07 08:03:08;;;;;;;9.40;6.65;;;;;;;0.14;82.33;102792.97;5094010;28;20123;-40
2021/03/07 08:05:36;;;;;;;7.63;6.07;;;;;;;0.22;83.14;102795.91;5093852;28;20379;-40
2021/03/07 08:08:06;;;;;;;8.18;6.10;;;;;;;0.44;83.27;102801.31;5093194;28;20027;-41
2021/03/07 08:10:40;;;;;;;7.57;6.18;;;;;;;0.57;82.21;102792.38;5093425;28;20073;-40
2021/03/07 08:13:12;;;;;;;9.38;5.93;;;;;;;0.61;82.20;102794.69;5092992;28;20020;-40
2021/03/07 08:15:44;;;;;;;9.63;6.20;;;;;;;0.56;81.48;102798.66;5093818;28;20035;-41
2021/03/07 08:18:10;;;;;;;11.98;7.70;;;;;;;0.52;82.15;102806.88;5092946;28;20078;-40
2021/03/07 08:20:39;;;;;;;7.50;5.80;;;;;;;0.52;82.06;102806.03;5094013;28;20103;-40
2021/03/07 08:23:11;;;;;;;8.15;6.75;;;;;;;0.48;82.82;102800.09;5093165;28;20353;-41
2021/03/07 08:25:45;;;;;;;11.20;7.00;;;;;;;0.48;82.33;102802.75;5094022;28;20059;-40
2021/03/07 08:28:29;;;;;;;9.80;6.38;;;;;;;0.56;82.50;102804.84;5096966;28;20112;-40
2021/03/07 08:31:03;;;;;;;12.70;7.25;;;;;;;0.55;82.89;102795.16;5096940;28;20028;-40
2021/03/07 08:33:33;;;;;;;11.50;7.25;;;;;;;0.61;83.71;102799.16;5097586;28;20027;-41
2021/03/07 08:36:21;;;;;;;10.75;7.13;;;;;;;0.69;83.59;102799.44;5097277;28;20123;-40
2021/03/07 08:38:53;;;;;;;10.52;6.80;;;;;;;0.74;83.10;102800.75;5096729;28;20028;-40
2021/03/07 08:41:22;;;;;;;8.70;6.30;;;;;;;0.79;82.96;102795.09;5096700;28;20036;-41
2021/03/07 08:43:48;;;;;;;12.30;7.18;;;;;;;0.91;83.43;102796.78;5096642;28;20030;-41
2021/03/07 08:46:22;;;;;;;10.25;6.93;;;;;;;0.98;83.17;102800.66;5097530;28;20024;-41
2021/03/07 08:48:50;;;;;;;9.82;6.53;;;;;;;1.08;83.49;102794.63;5096804;28;20052;-40
2021/03/07 08:51:17;;;;;;;12.88;7.07;;;;;;;1.11;83.21;102794.34;5113128;28;20513;-40
2021/03/07 08:53:45;;;;;;;10.65;6.05;;;;;;;1.15;82.75;102796.66;5096415;28;20031;-40
2021/03/07 08:56:11;;;;;;;11.70;7.15;;;;;;;1.27;83.09;102789.53;5096953;28;20039;-40
2021/03/07 08:58:38;;;;;;;9.20;7.10;;;;;;;1.39;83.30;102785.84;5096087;28;20035;-40
2021/03/07 09:01:05;;;;;;;10.25;5.72;;;;;;;1.47;82.27;102782.59;5097197;28;20028;-40
2021/03/07 09:03:30;;;;;;;;;;;;;;;1.59;81.76;102784.25;5097338;28;20051;-40
2021/03/07 09:05:56;;;;;;;9.43;5.90;;;;;;;1.74;82.25;102784.81;5096340;28;20080;-41
2021/03/07 09:08:23;;;;;;;8.73;5.68;;;;;;;1.87;81.28;102779.31;5095843;28;20485;-41
2021/03/07 09:10:51;;;;;;;8.43;6.00;;;;;;;1.89;80.98;102775.53;5096244;28;20035;-41
2021/03/07 09:13:21;;;;;;;8.48;6.07;;;;;;;2.01;80.51;102777.22;5096060;28;20032;-41
2021/03/07 09:15:51;;;;;;;10.98;6.03;;;;;;;2.03;80.67;102774.41;5096126;28;20048;-40
2021/03/07 09:18:18;;;;;;;9.80;6.25;;;;;;;2.08;80.35;102772.19;5096583;28;20128;-40
2021/03/07 09:20:44;;;;;;;10.65;6.15;;;;;;;2.20;80.30;102762.31;5096057;28;20028;-39
2021/03/07 09:23:28;;;;;;;;;;;;;;;2.32;80.41;102759.44;5097117;28;20453;-41
2021/03/07 09:25:53;;;;;;;6.18;4.82;;;;;;;2.43;79.72;102755.84;5095891;28;19914;-41
2021/03/07 09:28:32;;;;;;;7.95;4.45;;;;;;;2.48;78.81;102753.63;5096592;28;20028;-41
2021/03/07 09:31:00;;;;;;;6.13;4.47;;;;;;;2.56;79.17;102756.50;5096084;28;20028;-41
2021/03/07 09:33:26;;;;;;;7.78;4.18;;;;;;;2.72;78.05;102756.03;5095906;28;20100;-40
2021/03/07 09:36:11;;;;;;;4.63;3.53;;;;;;;2.97;77.51;102743.19;5095704;28;20023;-41
2021/03/07 09:38:42;;;;;;;6.80;4.38;;;;;;;3.10;77.38;102742.00;5094421;28;20032;-40
2021/03/07 09:41:07;;;;;;;6.03;3.45;;;;;;;3.26;75.89;102743.31;5096153;28;20081;-40
2021/03/07 09:43:33;;;;;;;5.97;3.85;;;;;;;3.40;75.70;102745.59;5095484;28;20020;-40
2021/03/07 09:45:59;;;;;;;6.03;2.65;;;;;;;3.57;72.56;102742.25;5096431;28;20031;-40
2021/03/07 09:48:45;;;;;;;6.13;2.67;;;;;;;3.64;71.81;102747.03;5095317;28;20028;-40
2021/03/07 09:51:13;;;;;;;5.05;2.47;;;;;;;3.90;69.39;102748.19;5096217;28;20024;-40
2021/03/07 09:53:40;;;;;;;4.88;2.40;;;;;;;4.05;69.25;102741.44;5094988;28;20103;-40
2021/03/07 09:56:18;;;;;;;4.57;2.20;;;;;;;4.10;67.46;102743.69;5095569;28;20032;-40
2021/03/07 09:58:43;;;;;;;3.95;2.20;;;;;;;4.16;66.00;102734.25;5095221;28;20486;-40
2021/03/07 10:01:09;;;;;;;3.23;2.20;;;;;;;4.21;66.90;102740.00;5110997;28;20028;-40
2021/03/07 10:03:34;;;;;;;3.73;2.50;;;;;;;4.26;65.74;102737.75;5095763;28;20044;-40
2021/03/07 10:06:06;;;;;;;3.83;2.40;;;;;;;4.21;64.12;102740.84;5095880;28;20115;-40
2021/03/07 10:08:34;;;;;;;3.92;2.20;;;;;;;4.20;63.57;102752.56;5095088;28;20510;-40
2021/03/07 10:11:12;;;;;;;3.45;2.38;;;;;;;4.13;63.71;102740.72;5095280;28;20103;-40
2021/03/07 10:13:39;;;;;;;3.58;2.30;;;;;;;4.09;63.06;102744.66;5094916;28;20031;-40
2021/03/07 10:16:06;;;;;;;;;;;;;;;4.10;61.85;102743.69;5095089;28;20034;-40
2021/03/07 10:18:31;;;;;;;3.35;2.35;;;;;;;4.03;60.53;102746.06;5094554;28;19970;-40
2021/03/07 10:20:57;;;;;;;8.80;3.10;;;;;;;3.95;60.57;102747.75;5095691;28;20059;-40
2021/03/07 10:23:28;;;;;;;4.10;2.50;;;;;;;3.98;62.98;102744.81;5094698;28;20064;-40
2021/03/07 10:25:54;;;;;;;4.10;2.03;;;;;;;4.21;58.76;102746.22;5095574;28;20024;-41
2021/03/07 10:28:24;;;;;;;3.38;2.40;;;;;;;4.53;57.36;102742.34;5094286;28;20031;-40
2021/03/07 10:30:51;;;;;;;5.43;2.42;;;;;;;4.51;58.06;102731.78;5094383;28;20388;-41
2021/03/07 10:33:24;;;;;;;5.97;2.88;;;;;;;4.43;57.54;102738.84;5094666;28;20107;-41
2021/03/07 10:36:12;;;;;;;4.55;2.72;;;;;;;4.28;56.39;102730.41;5094813;28;20039;-40
2021/03/07 10:38:47;;;;;;;3.58;2.78;;;;;;;4.32;56.48;102729.13;5094776;28;20379;-41
2021/03/07 10:41:31;;;;;;;4.80;2.90;;;;;;;4.57;55.52;102724.97;5095036;28;20035;-40
2021/03/07 10:44:07;;;;;;;6.22;4.50;;;;;;;4.59;54.62;102723.03;5094702;28;20380;-40
2021/03/07 10:46:36;;;;;;;6.68;5.35;;;;;;;4.55;53.03;102722.47;5094615;28;20035;-40
2021/03/07 10:49:08;;;;;;;7.53;5.97;;;;;;;4.56;53.26;102721.47;5094082;28;20027;-40
2021/03/07 10:51:34;;;;;;;8.13;6.68;;;;;;;4.52;52.78;102717.38;5094243;28;20085;-40
2021/03/07 10:54:00;;;;;;;7.38;6.50;;;;;;;4.44;53.69;102711.91;5094244;28;20036;-40
2021/03/07 10:56:33;;;;;;;6.60;5.35;;;;;;;4.38;54.26;102715.16;5094191;28;20035;-40
2021/03/07 10:58:59;;;;;;;7.45;6.32;;;;;;;4.45;53.97;102704.72;5094662;28;20054;-40
2021/03/07 11:01:25;;;;;;;11.00;7.72;;;;;;;4.67;53.87;102703.50;5094066;28;20035;-40
2021/03/07 11:03:50;;;;;;;9.83;7.73;;;;;;;4.89;52.61;102700.47;5095404;28;20059;-40
2021/03/07 11:06:18;;;;;;;10.20;7.20;;;;;;;5.07;53.49;102695.97;5093997;28;20347;-40
2021/03/07 11:08:45;;;;;;;11.18;7.28;;;;;;;5.19;52.43;102688.59;5093711;28;20103;-40
2021/03/07 11:11:10;;;;;;;;;;;;;;;5.44;54.69;102689.69;5110275;28;20119;-40
2021/03/07 11:13:35;;;;;;;10.55;7.72;;;;;;;5.52;52.71;102684.41;5093923;28;19959;-40
2021/03/07 11:16:02;;;;;;;7.03;5.73;;;;;;;5.56;49.93;102679.56;5093530;28;20140;-40
2021/03/07 11:18:27;;;;;;;7.45;6.03;;;;;;;5.35;48.72;102683.38;5093794;28;20028;-40
2021/03/07 11:20:52;;;;;;;8.57;6.90;;;;;;;5.49;50.50;102673.97;5094673;28;20032;-40
2021/03/07 11:23:18;;;;;;;7.73;6.10;;;;;;;5.61;50.21;102682.63;5093768;28;20028;-40
2021/03/07 11:25:44;;;;;;;8.05;6.00;;;;;;;5.77;50.14;102677.44;5094361;28;20027;-40
2021/03/07 11:28:09;;;;;;;8.27;6.47;;;;;;;5.84;49.21;102680.31;5109245;28;20160;-40
2021/03/07 11:30:36;;;;;;;8.63;6.60;;;;;;;6.02;52.12;102683.88;5094332;28;20020;-40
2021/03/07 11:33:02;;;;;;;8.13;6.30;;;;;;;5.83;47.84;102682.16;5093917;28;20059;-40